createdAt,value
2023-03-04T00:00:47.954Z,94456.00
2023-03-04T00:03:15.872Z,94456.00
2023-03-04T00:05:43.210Z,94466.00
2023-03-04T00:08:10.285Z,94453.00
2023-03-04T00:10:37.157Z,94460.00
2023-03-04T00:13:04.207Z,94456.00
2023-03-04T00:15:34.254Z,94460.00
2023-03-04T00:18:01.422Z,94462.00
2023-03-04T00:20:30.404Z,94464.00
2023-03-04T00:22:57.218Z,94464.00
2023-03-04T00:25:28.800Z,94466.00
2023-03-04T00:27:58.298Z,94469.00
2023-03-04T00:30:29.471Z,94461.00
2023-03-04T00:32:56.754Z,94467.00
2023-03-04T00:35:23.672Z,94460.00
2023-03-04T00:37:50.563Z,94468.00
2023-03-04T00:40:17.862Z,94467.00
2023-03-04T00:42:47.079Z,94466.00
2023-03-04T00:45:13.893Z,94456.00
2023-03-04T00:47:43.307Z,94460.00
2023-03-04T00:50:11.310Z,94465.00
2023-03-04T00:52:38.406Z,94465.00
2023-03-04T00:55:06.828Z,94470.00
2023-03-04T00:57:33.813Z,94467.00
2023-03-04T01:00:00.964Z,94465.00
2023-03-04T01:02:30.252Z,94470.00
2023-03-04T01:04:59.568Z,94467.00
2023-03-04T01:07:26.469Z,94468.00
2023-03-04T01:09:53.363Z,94470.00
2023-03-04T01:12:22.771Z,94468.00
2023-03-04T01:14:49.927Z,94466.00
2023-03-04T01:17:19.520Z,94461.00
2023-03-04T01:19:46.468Z,94463.00
2023-03-04T01:22:15.111Z,94458.00
2023-03-04T01:24:42.553Z,94458.00
2023-03-04T01:27:09.593Z,94459.00
2023-03-04T01:29:36.542Z,94458.00
2023-03-04T01:32:04.334Z,94460.00
2023-03-04T01:34:31.298Z,94449.00
2023-03-04T01:37:00.288Z,94445.00
2023-03-04T01:39:27.425Z,94449.00
2023-03-04T01:41:57.014Z,94443.00
2023-03-04T01:44:24.170Z,94448.00
2023-03-04T01:46:56.971Z,94440.00
2023-03-04T01:49:24.024Z,94437.00
2023-03-04T01:51:56.563Z,94434.00
2023-03-04T01:54:25.910Z,94435.00
2023-03-04T01:56:55.028Z,94419.00
2023-03-04T01:59:25.041Z,94426.00
2023-03-04T02:01:56.142Z,94423.00
2023-03-04T02:04:28.878Z,94418.00
2023-03-04T02:06:57.506Z,94427.00
2023-03-04T02:09:26.864Z,94424.00
2023-03-04T02:11:53.978Z,94418.00
2023-03-04T02:14:21.741Z,94409.00
2023-03-04T02:16:49.809Z,94421.00
2023-03-04T02:19:41.392Z,94420.00
2023-03-04T02:22:11.342Z,94417.00
2023-03-04T02:24:49.056Z,94419.00
2023-03-04T02:27:22.048Z,94421.00
2023-03-04T02:29:49.326Z,94411.00
2023-03-04T02:32:17.116Z,94421.00
2023-03-04T02:34:51.456Z,94405.00
2023-03-04T02:37:22.042Z,94413.00
2023-03-04T02:39:54.684Z,94391.00
2023-03-04T02:42:21.653Z,94406.00
2023-03-04T02:44:59.451Z,94416.00
2023-03-04T02:47:26.347Z,94397.00
2023-03-04T02:49:53.348Z,94406.00
2023-03-04T02:52:26.448Z,94407.00
2023-03-04T02:54:53.325Z,94406.00
2023-03-04T02:57:20.166Z,94408.00
2023-03-04T02:59:47.114Z,94403.00
2023-03-04T03:02:14.076Z,94407.00
2023-03-04T03:04:41.549Z,94395.00
2023-03-04T03:07:09.132Z,94413.00
2023-03-04T03:09:38.347Z,94406.00
2023-03-04T03:12:07.851Z,94404.00
2023-03-04T03:14:34.772Z,94398.00
2023-03-04T03:17:01.672Z,94401.00
2023-03-04T03:19:28.483Z,94407.00
2023-03-04T03:21:55.407Z,94407.00
2023-03-04T03:24:22.336Z,94407.00
2023-03-04T03:26:51.503Z,94411.00
2023-03-04T03:29:21.362Z,94404.00
2023-03-04T03:31:50.529Z,94400.00
2023-03-04T03:34:17.468Z,94403.00
2023-03-04T03:36:44.392Z,94406.00
2023-03-04T03:39:11.364Z,94409.00
2023-03-04T03:41:38.201Z,94403.00
2023-03-04T03:44:05.270Z,94402.00
2023-03-04T03:46:32.104Z,94394.00
2023-03-04T03:48:58.997Z,94403.00
2023-03-04T03:51:25.853Z,94409.00
2023-03-04T03:53:52.758Z,94404.00
2023-03-04T03:56:19.673Z,94388.00
2023-03-04T03:58:46.543Z,94394.00
2023-03-04T04:01:13.469Z,94394.00
2023-03-04T04:03:40.549Z,94404.00
2023-03-04T04:06:07.625Z,94389.00
2023-03-04T04:08:34.530Z,94405.00
2023-03-04T04:11:03.657Z,94404.00
2023-03-04T04:13:30.614Z,94398.00
2023-03-04T04:15:59.907Z,94401.00
2023-03-04T04:18:26.942Z,94408.00
2023-03-04T04:20:56.648Z,94388.00
2023-03-04T04:23:25.773Z,94394.00
2023-03-04T04:25:57.722Z,94401.00
2023-03-04T04:28:25.131Z,94399.00
2023-03-04T04:30:54.298Z,94410.00
2023-03-04T04:33:21.120Z,94408.00
2023-03-04T04:35:47.960Z,94398.00
2023-03-04T04:38:17.417Z,94407.00
2023-03-04T04:40:44.396Z,94403.00
2023-03-04T04:43:11.346Z,94408.00
2023-03-04T04:45:40.282Z,94400.00
2023-03-04T04:48:07.390Z,94407.00
2023-03-04T04:50:36.564Z,94405.00
2023-03-04T04:53:03.453Z,94419.00
2023-03-04T04:55:35.212Z,94420.00
2023-03-04T04:58:06.647Z,94414.00
2023-03-04T05:00:33.583Z,94416.00
2023-03-04T05:03:02.720Z,94425.00
2023-03-04T05:05:29.688Z,94432.00
2023-03-04T05:07:56.656Z,94419.00
2023-03-04T05:10:25.712Z,94421.00
2023-03-04T05:12:52.540Z,94424.00
2023-03-04T05:15:19.436Z,94411.00
2023-03-04T05:17:48.861Z,94415.00
2023-03-04T05:20:18.393Z,94420.00
2023-03-04T05:22:48.234Z,94420.00
2023-03-04T05:25:15.282Z,94414.00
2023-03-04T05:27:42.104Z,94409.00
2023-03-04T05:30:10.036Z,94422.00
2023-03-04T05:32:38.987Z,94415.00
2023-03-04T05:35:07.039Z,94413.00
2023-03-04T05:37:34.007Z,94418.00
2023-03-04T05:40:06.775Z,94411.00
2023-03-04T05:42:36.132Z,94414.00
2023-03-04T05:45:03.618Z,94414.00
2023-03-04T05:47:30.491Z,94418.00
2023-03-04T05:49:58.094Z,94416.00
2023-03-04T05:52:27.250Z,94413.00
2023-03-04T05:54:54.121Z,94413.00
2023-03-04T05:57:23.275Z,94413.00
2023-03-04T05:59:52.634Z,94411.00
2023-03-04T06:02:22.137Z,94410.00
2023-03-04T06:04:49.047Z,94425.00
2023-03-04T06:07:16.126Z,94429.00
2023-03-04T06:09:45.788Z,94427.00
2023-03-04T06:12:18.453Z,94425.00
2023-03-04T06:14:50.957Z,94426.00
2023-03-04T06:17:18.119Z,94434.00
2023-03-04T06:19:45.106Z,94438.00
2023-03-04T06:22:12.591Z,94433.00
2023-03-04T06:24:39.914Z,94437.00
2023-03-04T06:27:07.117Z,94439.00
2023-03-04T06:29:33.931Z,94446.00
2023-03-04T06:32:02.955Z,94442.00
2023-03-04T06:34:29.901Z,94447.00
2023-03-04T06:36:56.734Z,94445.00
2023-03-04T06:39:23.691Z,94448.00
2023-03-04T06:41:53.575Z,94445.00
2023-03-04T06:44:22.760Z,94450.00
2023-03-04T06:46:49.697Z,94451.00
2023-03-04T06:49:19.166Z,94446.00
2023-03-04T06:51:46.033Z,94451.00
2023-03-04T06:54:12.910Z,94445.00
2023-03-04T06:56:39.805Z,94450.00
2023-03-04T06:59:09.162Z,94454.00
2023-03-04T07:01:36.700Z,94463.00
2023-03-04T07:04:04.185Z,94453.00
2023-03-04T07:06:31.447Z,94439.00
2023-03-04T07:08:58.633Z,94460.00
2023-03-04T07:11:30.236Z,94458.00
2023-03-04T07:13:57.096Z,94454.00
2023-03-04T07:16:24.452Z,94458.00
2023-03-04T07:18:56.014Z,94469.00
2023-03-04T07:21:23.000Z,94460.00
2023-03-04T07:23:49.839Z,94460.00
2023-03-04T07:26:17.756Z,94458.00
2023-03-04T07:28:47.824Z,94463.00
2023-03-04T07:31:30.372Z,94468.00
2023-03-04T07:34:06.721Z,94469.00
2023-03-04T07:36:38.767Z,94463.00
2023-03-04T07:39:06.957Z,94455.00
2023-03-04T07:41:38.310Z,94454.00
2023-03-04T07:44:13.381Z,94446.00
2023-03-04T07:46:40.926Z,94456.00
2023-03-04T07:49:08.326Z,94461.00
2023-03-04T07:51:35.726Z,94458.00
2023-03-04T07:54:02.756Z,94447.00
2023-03-04T07:56:33.213Z,94453.00
2023-03-04T07:59:00.849Z,94448.00
2023-03-04T08:01:37.030Z,94446.00
2023-03-04T08:04:08.774Z,94448.00
2023-03-04T08:06:36.118Z,94443.00
2023-03-04T08:09:08.260Z,94435.00
2023-03-04T08:11:38.589Z,94436.00
2023-03-04T08:14:05.897Z,94429.00
2023-03-04T08:16:33.302Z,94435.00
2023-03-04T08:19:07.398Z,94437.00
2023-03-04T08:21:41.265Z,94416.00
2023-03-04T08:24:10.701Z,94425.00
2023-03-04T08:26:43.592Z,94416.00
2023-03-04T08:29:17.315Z,94420.00
2023-03-04T08:31:48.656Z,94423.00
2023-03-04T08:34:16.372Z,94415.00
2023-03-04T08:36:43.646Z,94417.00
2023-03-04T08:39:14.235Z,94417.00
2023-03-04T08:41:41.868Z,94413.00
2023-03-04T08:44:10.360Z,94413.00
2023-03-04T08:46:39.096Z,94415.00
2023-03-04T08:49:06.108Z,94412.00
2023-03-04T08:51:36.363Z,94407.00
2023-03-04T08:54:04.733Z,94415.00
2023-03-04T08:56:31.658Z,94411.00
2023-03-04T08:58:59.417Z,94408.00
2023-03-04T09:01:26.409Z,94408.00
2023-03-04T09:03:53.485Z,94413.00
2023-03-04T09:06:22.992Z,94406.00
2023-03-04T09:08:49.901Z,94406.00
2023-03-04T09:11:16.998Z,94404.00
2023-03-04T09:13:43.950Z,94407.00
2023-03-04T09:16:15.399Z,94397.00
2023-03-04T09:18:45.909Z,94410.00
2023-03-04T09:21:15.064Z,94403.00
2023-03-04T09:23:42.143Z,94399.00
2023-03-04T09:26:23.656Z,94403.00
2023-03-04T09:28:57.880Z,94406.00
2023-03-04T09:31:26.100Z,94409.00
2023-03-04T09:33:58.140Z,94403.00
2023-03-04T09:36:29.713Z,94398.00
2023-03-04T09:39:01.569Z,94408.00
2023-03-04T09:41:43.886Z,94401.00
2023-03-04T09:44:32.468Z,94405.00
2023-03-04T09:47:03.510Z,94405.00
2023-03-04T09:49:38.046Z,94401.00
2023-03-04T09:52:47.300Z,94411.00
2023-03-04T09:55:39.109Z,94409.00
2023-03-04T09:58:55.197Z,94403.00
2023-03-04T10:01:29.124Z,94412.00
2023-03-04T10:04:20.879Z,94414.00
2023-03-04T10:06:54.253Z,94411.00
2023-03-04T10:09:45.902Z,94401.00
2023-03-04T10:12:19.574Z,94408.00
2023-03-04T10:15:00.932Z,94403.00
2023-03-04T10:17:38.123Z,94406.00
2023-03-04T10:20:23.612Z,94403.00
2023-03-04T10:22:56.937Z,94397.00
2023-03-04T10:25:30.702Z,94398.00
2023-03-04T10:28:05.315Z,94397.00
2023-03-04T10:31:10.170Z,94402.00
2023-03-04T10:33:39.965Z,94390.00
2023-03-04T10:36:31.281Z,94396.00
2023-03-04T10:39:08.177Z,94390.00
2023-03-04T10:41:35.284Z,94382.00
2023-03-04T10:44:19.221Z,94388.00
2023-03-04T10:46:49.285Z,94388.00
2023-03-04T10:49:20.204Z,94383.00
2023-03-04T10:52:03.769Z,94384.00
2023-03-04T10:54:53.506Z,94385.00
2023-03-04T10:57:38.850Z,94383.00
2023-03-04T11:00:17.955Z,94380.00
2023-03-04T11:02:49.256Z,94381.00
2023-03-04T11:05:22.711Z,94380.00
2023-03-04T11:07:56.803Z,94380.00
2023-03-04T11:10:36.650Z,94385.00
2023-03-04T11:13:24.012Z,94383.00
2023-03-04T11:16:22.112Z,94375.00
2023-03-04T11:18:55.911Z,94373.00
2023-03-04T11:21:33.043Z,94379.00
2023-03-04T11:24:28.906Z,94376.00
2023-03-04T11:27:22.499Z,94380.00
2023-03-04T11:29:58.197Z,94371.00
2023-03-04T11:32:31.776Z,94366.00
2023-03-04T11:35:06.520Z,94369.00
2023-03-04T11:38:04.450Z,94363.00
2023-03-04T11:40:35.603Z,94368.00
2023-03-04T11:43:41.495Z,94368.00
2023-03-04T11:46:46.461Z,94360.00
2023-03-04T11:50:15.431Z,94360.00
2023-03-04T11:53:05.028Z,94356.00
2023-03-04T11:55:41.999Z,94348.00
2023-03-04T11:58:46.031Z,94352.00
2023-03-04T12:01:29.848Z,94339.00
2023-03-04T12:04:25.699Z,94337.00
2023-03-04T12:07:09.942Z,94339.00
2023-03-04T12:09:52.045Z,94326.00
2023-03-04T12:13:08.765Z,94325.00
2023-03-04T12:16:13.678Z,94319.00
2023-03-04T12:19:02.026Z,94313.00
2023-03-04T12:21:42.474Z,94315.00
2023-03-04T12:24:34.832Z,94314.00
2023-03-04T12:27:28.203Z,94308.00
2023-03-04T12:30:20.426Z,94300.00
2023-03-04T12:33:13.841Z,94309.00
2023-03-04T12:36:22.579Z,94294.00
2023-03-04T12:38:58.484Z,94292.00
2023-03-04T12:41:39.962Z,94296.00
2023-03-04T12:44:22.581Z,94291.00
2023-03-04T12:47:01.521Z,94288.00
2023-03-04T12:50:01.853Z,94282.00
2023-03-04T12:53:14.751Z,94275.00
2023-03-04T12:55:45.691Z,94277.00
2023-03-04T12:58:27.243Z,94274.00
2023-03-04T13:01:29.107Z,94268.00
2023-03-04T13:04:15.236Z,94276.00
2023-03-04T13:07:16.638Z,94273.00
2023-03-04T13:10:23.535Z,94272.00
2023-03-04T13:12:54.888Z,94266.00
2023-03-04T13:15:21.684Z,94265.00
2023-03-04T13:18:27.731Z,94261.00
2023-03-04T13:21:25.367Z,94269.00
2023-03-04T13:23:55.428Z,94261.00
2023-03-04T13:26:34.444Z,94270.00
2023-03-04T13:29:36.909Z,94262.00
2023-03-04T13:32:10.873Z,94251.00
2023-03-04T13:34:57.704Z,94263.00
2023-03-04T13:37:58.857Z,94260.00
2023-03-04T13:40:38.989Z,94264.00
2023-03-04T13:43:49.238Z,94260.00
2023-03-04T13:46:19.426Z,94258.00
2023-03-04T13:48:52.336Z,94254.00
2023-03-04T13:51:37.741Z,94253.00
2023-03-04T13:54:30.644Z,94242.00
2023-03-04T13:57:22.418Z,94247.00
2023-03-04T13:59:58.255Z,94246.00
2023-03-04T14:02:27.198Z,94242.00
2023-03-04T14:04:56.121Z,94245.00
2023-03-04T14:07:34.601Z,94241.00
2023-03-04T14:10:23.183Z,94232.00
2023-03-04T14:13:04.155Z,94234.00
2023-03-04T14:15:35.405Z,94225.00
2023-03-04T14:18:05.058Z,94232.00
2023-03-04T14:20:42.717Z,94223.00
2023-03-04T14:23:34.446Z,94224.00
2023-03-04T14:26:17.550Z,94219.00
2023-03-04T14:28:51.894Z,94217.00
2023-03-04T14:31:27.536Z,94217.00
2023-03-04T14:34:04.770Z,94218.00
2023-03-04T14:36:36.936Z,94210.00
2023-03-04T14:39:08.590Z,94198.00
2023-03-04T14:41:39.931Z,94204.00
2023-03-04T14:44:35.027Z,94203.00
2023-03-04T14:47:26.568Z,94211.00
2023-03-04T14:49:53.788Z,94201.00
2023-03-04T14:52:51.631Z,94213.00
2023-03-04T14:55:27.559Z,94210.00
2023-03-04T14:58:16.781Z,94207.00
2023-03-04T15:00:46.711Z,94206.00
2023-03-04T15:03:31.249Z,94201.00
2023-03-04T15:06:23.196Z,94198.00
2023-03-04T15:09:20.633Z,94196.00
2023-03-04T15:12:03.678Z,94203.00
2023-03-04T15:14:53.950Z,94202.00
2023-03-04T15:17:39.860Z,94206.00
2023-03-04T15:20:09.475Z,94214.00
2023-03-04T15:23:06.331Z,94208.00
2023-03-04T15:25:36.455Z,94204.00
2023-03-04T15:28:04.381Z,94203.00
2023-03-04T15:30:34.231Z,94205.00
2023-03-04T15:33:04.182Z,94205.00
2023-03-04T15:35:33.365Z,94208.00
2023-03-04T15:38:00.620Z,94202.00
2023-03-04T15:40:44.699Z,94206.00
2023-03-04T15:43:17.683Z,94204.00
2023-03-04T15:45:45.270Z,94203.00
2023-03-04T15:48:19.153Z,94210.00
2023-03-04T15:51:01.129Z,94206.00
2023-03-04T15:53:46.744Z,94209.00
2023-03-04T15:56:25.004Z,94206.00
2023-03-04T15:59:01.484Z,94212.00
2023-03-04T16:01:30.727Z,94214.00
2023-03-04T16:04:00.171Z,94216.00
2023-03-04T16:06:31.199Z,94217.00
2023-03-04T16:09:01.033Z,94224.00
2023-03-04T16:11:32.852Z,94224.00
2023-03-04T16:14:02.230Z,94221.00
2023-03-04T16:16:29.575Z,94227.00
2023-03-04T16:18:56.518Z,94220.00
2023-03-04T16:21:23.471Z,94230.00
2023-03-04T16:23:52.161Z,94229.00
2023-03-04T16:26:22.761Z,94234.00
2023-03-04T16:28:52.556Z,94233.00
2023-03-04T16:31:21.884Z,94226.00
2023-03-04T16:33:51.477Z,94234.00
2023-03-04T16:36:25.652Z,94236.00
2023-03-04T16:39:02.429Z,94227.00
2023-03-04T16:41:36.969Z,94233.00
2023-03-04T16:44:04.048Z,94237.00
2023-03-04T16:46:33.014Z,94231.00
2023-03-04T16:48:59.895Z,94232.00
2023-03-04T16:51:31.327Z,94242.00
2023-03-04T16:54:02.514Z,94230.00
2023-03-04T16:56:31.962Z,94233.00
2023-03-04T16:59:00.177Z,94242.00
2023-03-04T17:01:31.708Z,94247.00
2023-03-04T17:04:00.832Z,94250.00
2023-03-04T17:06:28.184Z,94248.00
2023-03-04T17:08:55.048Z,94251.00
2023-03-04T17:11:26.395Z,94255.00
2023-03-04T17:13:56.142Z,94266.00
2023-03-04T17:16:23.237Z,94258.00
2023-03-04T17:18:50.218Z,94270.00
2023-03-04T17:21:25.243Z,94262.00
2023-03-04T17:23:56.409Z,94265.00
2023-03-04T17:26:25.528Z,94276.00
2023-03-04T17:28:54.700Z,94273.00
2023-03-04T17:31:26.544Z,94276.00
2023-03-04T17:33:53.428Z,94285.00
2023-03-04T17:36:20.408Z,94276.00
2023-03-04T17:38:49.476Z,94276.00
2023-03-04T17:41:18.551Z,94282.00
2023-03-04T17:43:51.210Z,94285.00
2023-03-04T17:46:22.645Z,94278.00
2023-03-04T17:48:59.807Z,94291.00
2023-03-04T17:51:47.580Z,94296.00
2023-03-04T17:54:14.460Z,94292.00
2023-03-04T17:56:43.436Z,94287.00
2023-03-04T17:59:16.338Z,94290.00
2023-03-04T18:01:47.904Z,94297.00
2023-03-04T18:04:14.898Z,94301.00
2023-03-04T18:06:42.697Z,94306.00
2023-03-04T18:09:10.054Z,94303.00
2023-03-04T18:11:38.996Z,94312.00
2023-03-04T18:14:12.590Z,94307.00
2023-03-04T18:16:40.347Z,94304.00
2023-03-04T18:19:09.854Z,94313.00
2023-03-04T18:21:38.975Z,94316.00
2023-03-04T18:24:06.960Z,94314.00
2023-03-04T18:26:34.047Z,94307.00
2023-03-04T18:29:03.960Z,94315.00
2023-03-04T18:31:32.506Z,94335.00
2023-03-04T18:34:01.740Z,94327.00
2023-03-04T18:36:29.552Z,94327.00
2023-03-04T18:38:59.578Z,94329.00
2023-03-04T18:41:27.894Z,94320.00
2023-03-04T18:43:55.270Z,94316.00
2023-03-04T18:46:27.950Z,94324.00
2023-03-04T18:49:00.860Z,94324.00
2023-03-04T18:51:32.428Z,94336.00
2023-03-04T18:53:59.273Z,94335.00
2023-03-04T18:56:38.229Z,94330.00
2023-03-04T18:59:15.951Z,94324.00
2023-03-04T19:01:45.944Z,94329.00
2023-03-04T19:04:14.368Z,94336.00
2023-03-04T19:06:43.442Z,94339.00
2023-03-04T19:09:10.546Z,94341.00
2023-03-04T19:11:37.490Z,94348.00
2023-03-04T19:14:05.797Z,94349.00
2023-03-04T19:16:35.842Z,94349.00
2023-03-04T19:19:07.651Z,94354.00
2023-03-04T19:21:41.940Z,94355.00
2023-03-04T19:24:08.934Z,94356.00
2023-03-04T19:26:38.804Z,94364.00
2023-03-04T19:29:07.284Z,94362.00
2023-03-04T19:31:34.764Z,94354.00
2023-03-04T19:34:06.816Z,94363.00
2023-03-04T19:36:36.300Z,94365.00
2023-03-04T19:39:03.806Z,94371.00
2023-03-04T19:41:35.404Z,94364.00
2023-03-04T19:44:02.181Z,94368.00
2023-03-04T19:46:32.285Z,94363.00
2023-03-04T19:49:01.663Z,94369.00
2023-03-04T19:51:33.059Z,94368.00
2023-03-04T19:54:00.424Z,94369.00
2023-03-04T19:56:27.391Z,94373.00
2023-03-04T19:58:58.617Z,94359.00
2023-03-04T20:01:32.711Z,94364.00
2023-03-04T20:04:08.076Z,94358.00
2023-03-04T20:06:42.069Z,94366.00
2023-03-04T20:09:09.498Z,94364.00
2023-03-04T20:11:44.215Z,94365.00
2023-03-04T20:14:17.885Z,94362.00
2023-03-04T20:16:49.601Z,94362.00
2023-03-04T20:19:18.756Z,94355.00
2023-03-04T20:21:45.597Z,94357.00
2023-03-04T20:24:13.044Z,94355.00
2023-03-04T20:26:42.176Z,94355.00
2023-03-04T20:29:09.085Z,94360.00
2023-03-04T20:31:39.288Z,94359.00
2023-03-04T20:34:07.886Z,94359.00
2023-03-04T20:36:35.891Z,94369.00
2023-03-04T20:39:15.414Z,94366.00
2023-03-04T20:41:55.540Z,94370.00
2023-03-04T20:44:22.493Z,94355.00
2023-03-04T20:46:49.390Z,94363.00
2023-03-04T20:49:25.043Z,94363.00
2023-03-04T20:51:54.096Z,94359.00
2023-03-04T20:54:21.804Z,94360.00
2023-03-04T20:56:51.284Z,94362.00
2023-03-04T20:59:18.597Z,94360.00
2023-03-04T21:01:52.240Z,94364.00
2023-03-04T21:04:20.447Z,94362.00
2023-03-04T21:06:48.351Z,94355.00
2023-03-04T21:09:17.837Z,94354.00
2023-03-04T21:11:48.332Z,94355.00
2023-03-04T21:14:22.207Z,94361.00
2023-03-04T21:16:54.755Z,94351.00
2023-03-04T21:19:36.147Z,94358.00
2023-03-04T21:22:04.329Z,94357.00
2023-03-04T21:24:37.798Z,94352.00
2023-03-04T21:27:06.266Z,94356.00
2023-03-04T21:29:35.297Z,94361.00
2023-03-04T21:32:23.346Z,94360.00
2023-03-04T21:34:52.315Z,94350.00
2023-03-04T21:37:23.947Z,94355.00
2023-03-04T21:39:51.132Z,94353.00
2023-03-04T21:42:20.343Z,94355.00
2023-03-04T21:44:52.228Z,94363.00
2023-03-04T21:47:27.064Z,94359.00
2023-03-04T21:49:54.002Z,94351.00
2023-03-04T21:52:22.217Z,94354.00
2023-03-04T21:54:49.748Z,94344.00
2023-03-04T21:57:17.232Z,94342.00
2023-03-04T21:59:44.150Z,94352.00
2023-03-04T22:02:25.893Z,94352.00
2023-03-04T22:04:53.757Z,94346.00
2023-03-04T22:07:23.710Z,94344.00
2023-03-04T22:09:50.576Z,94341.00
2023-03-04T22:12:20.377Z,94338.00
2023-03-04T22:14:47.432Z,94342.00
2023-03-04T22:17:14.491Z,94334.00
2023-03-04T22:19:41.547Z,94337.00
2023-03-04T22:22:08.426Z,94327.00
2023-03-04T22:24:35.315Z,94326.00
2023-03-04T22:27:02.259Z,94331.00
2023-03-04T22:29:29.210Z,94330.00
2023-03-04T22:31:58.364Z,94319.00
2023-03-04T22:34:27.613Z,94316.00
2023-03-04T22:36:54.478Z,94316.00
2023-03-04T22:39:23.581Z,94319.00
2023-03-04T22:41:55.292Z,94313.00
2023-03-04T22:44:26.630Z,94306.00
2023-03-04T22:46:58.107Z,94316.00
2023-03-04T22:49:24.964Z,94316.00
2023-03-04T22:51:55.034Z,94317.00
2023-03-04T22:54:21.932Z,94315.00
2023-03-04T22:56:53.323Z,94314.00
2023-03-04T22:59:22.673Z,94304.00
2023-03-04T23:01:49.567Z,94308.00
2023-03-04T23:04:16.441Z,94319.00
2023-03-04T23:06:43.309Z,94318.00
2023-03-04T23:09:12.327Z,94318.00
2023-03-04T23:11:42.260Z,94318.00
2023-03-04T23:14:12.227Z,94316.00
2023-03-04T23:16:44.045Z,94330.00
2023-03-04T23:19:18.578Z,94327.00
2023-03-04T23:21:47.967Z,94315.00
2023-03-04T23:24:20.177Z,94323.00
2023-03-04T23:26:48.155Z,94322.00
2023-03-04T23:29:16.371Z,94321.00
2023-03-04T23:31:45.758Z,94316.00
2023-03-04T23:34:13.500Z,94317.00
2023-03-04T23:36:40.938Z,94316.00
2023-03-04T23:39:11.264Z,94302.00
2023-03-04T23:41:39.757Z,94310.00
2023-03-04T23:44:08.128Z,94308.00
2023-03-04T23:46:38.619Z,94306.00
2023-03-04T23:49:12.836Z,94309.00
2023-03-04T23:51:40.959Z,94292.00
2023-03-04T23:54:12.989Z,94303.00
2023-03-04T23:56:40.353Z,94305.00
2023-03-04T23:59:11.807Z,94305.00
